Hoegh Transporter — LAKO7 — position and weather

sailwx.info

Track history (hours):
 
Tides and Currents Weather Stations Pressure Air Temp Water Temp Dewpoint Dewpoint Depression Visibility Wind Speed Wind Dir Waves Ship Positions

Hoegh Transporter

Last reported at 2014-Aug-29 07:33 UTC. Time now 2014-Aug-29 08:01 UTC.
Position N 53°34' E 008°33'.

Length 199 m; draft 7.9 m.

Type: Cargo ship. MMSI: 257712000.

Date/timePositionNaut miles runAvg speedWind from/ knotsBaromVisibWave heightAir tempDewpointWater temp
2014-Aug-29 07:33N 53°34' E 008°33'0 0.0
2014-Aug-29 06:33N 53°34' E 008°33'0 0.0
2014-Aug-29 05:27N 53°34' E 008°33'0 0.0
2014-Aug-29 04:27N 53°34' E 008°33'0 0.0
2014-Aug-29 03:27N 53°34' E 008°33'0 0.0
2014-Aug-29 02:33N 53°34' E 008°33'0 0.0
2014-Aug-29 01:33N 53°34' E 008°33'0 0.0
2014-Aug-29 00:30N 53°34' E 008°33'0 0.0
2014-Aug-28 23:33N 53°34' E 008°33'0 0.0
2014-Aug-28 22:30N 53°34' E 008°33'0 0.0
2014-Aug-28 21:24N 53°34' E 008°33'0 0.0
2014-Aug-28 20:30N 53°34' E 008°33'0 0.0
2014-Aug-28 19:27N 53°34' E 008°33'0 0.0
2014-Aug-28 18:33N 53°34' E 008°33'0 0.0
2014-Aug-28 17:33N 53°34' E 008°33'0 0.0
2014-Aug-28 16:30N 53°34' E 008°33'0 0.0
2014-Aug-28 15:27N 53°34' E 008°33'0 0.0
2014-Aug-28 14:33N 53°34' E 008°33'0 0.1
2014-Aug-28 13:33N 53°34' E 008°33'0 0.2
2014-Aug-28 12:33N 53°34' E 008°33'8 7.6
2014-Aug-28 11:33N 53°39' E 008°24'1212.4
2014-Aug-28 10:33N 53°48' E 008°08'1211.8
2014-Aug-28 09:32N 53°52' E 007°50'1111.7
2014-Aug-28 08:33N 53°54' E 007°30'1616.0
2014-Aug-28 07:33N 53°51' E 007°04'1515.4
2014-Aug-28 06:34N 53°47' E 006°38'1514.7
2014-Aug-28 05:32N 53°43' E 006°14'1414.3
2014-Aug-28 04:34N 53°39' E 005°51'1414.0
2014-Aug-28 03:33N 53°34' E 005°29'1414.0
2014-Aug-28 02:33N 53°30' E 005°07'1413.7
2014-Aug-28 01:34N 53°26' E 004°45'1514.7
2014-Aug-28 00:34N 53°13' E 004°33'1514.5
2014-Aug-27 23:34N 52°60' E 004°22'1414.1
2014-Aug-27 22:34N 52°48' E 004°10'1413.9
2014-Aug-27 21:33N 52°38' E 003°54'1414.0
2014-Aug-27 20:33N 52°27' E 003°40'1514.5
2014-Aug-27 19:33N 52°13' E 003°32'1212.3
2014-Aug-27 18:33N 52°04' E 003°46'1212.4
2014-Aug-27 17:33N 51°59' E 004°04'8 7.6
2014-Aug-27 16:33N 51°54' E 004°14'1 0.8
2014-Aug-27 15:33N 51°54' E 004°15'0 0.0
2014-Aug-27 14:33N 51°54' E 004°15'0 0.0
2014-Aug-27 13:33N 51°54' E 004°15'0 0.0
2014-Aug-27 12:33N 51°54' E 004°15'0 0.0
2014-Aug-27 11:33N 51°54' E 004°15'0 0.0
2014-Aug-27 10:33N 51°54' E 004°15'0 0.0
2014-Aug-27 09:33N 51°54' E 004°15'0 0.0
2014-Aug-27 08:33N 51°54' E 004°15'0 0.0
2014-Aug-27 07:33N 51°54' E 004°15'0 0.0
2014-Aug-27 06:33N 51°54' E 004°15'0 0.0
2014-Aug-27 05:33N 51°54' E 004°15'0 0.0
2014-Aug-27 04:33N 51°54' E 004°15'2 1.8
2014-Aug-27 03:33N 51°55' E 004°13'1010.2
2014-Aug-27 02:33N 52°00' E 003°59'1111.5
2014-Aug-27 01:33N 51°58' E 003°40'1716.8
2014-Aug-27 00:33N 51°54' E 003°14'1917.1
2014-Aug-26 23:27N 51°48' E 002°45'1516.3
2014-Aug-26 22:33N 51°38' E 002°27'1616.3
2014-Aug-26 21:33N 51°26' E 002°10'1514.8
2014-Aug-26 20:33N 51°13' E 001°59'1515.0
2014-Aug-26 19:33N 51°03' E 001°41'1312.8
2014-Aug-26 18:33N 50°54' E 001°27'1413.6
2014-Aug-26 17:34N 50°41' E 001°19'1914.6
2014-Aug-26 16:15N 50°30' E 000°55'1014.7
2014-Aug-26 15:33N 50°27' E 000°39'1515.0
2014-Aug-26 14:34N 50°22' E 000°17'  
2014-Aug-24 10:31N 39°03' W 009°51'1817.1
2014-Aug-24 09:26N 38°44' W 009°53'13016.2
2014-Aug-24 01:26N 36°42' W 008°58'3417.2
2014-Aug-23 23:28N 36°31' W 008°19'1516.9
2014-Aug-23 22:34N 36°27' W 008°00'1716.8
2014-Aug-23 21:34N 36°20' W 007°41'1716.5
2014-Aug-23 20:34N 36°13' W 007°23'1717.0
2014-Aug-23 19:32N 36°09' W 007°02'29214.5
2014-Aug-22 23:25N 36°34' W 001°00'1213.8
2014-Aug-22 22:33N 36°36' W 000°46'1414.0
2014-Aug-22 21:33N 36°38' W 000°28'1414.0
2014-Aug-22 20:33N 36°41' W 000°11'1313.5
2014-Aug-22 19:33N 36°42' E 000°05'1414.2
2014-Aug-22 18:33N 36°44' E 000°23'1515.1
2014-Aug-22 17:33N 36°47' E 000°42'1515.4
2014-Aug-22 16:34N 36°49' E 001°01'1514.8
2014-Aug-22 15:33N 36°51' E 001°19'1515.0
2014-Aug-22 14:33N 36°53' E 001°37'1514.9
2014-Aug-22 13:33N 36°55' E 001°56'1515.0
2014-Aug-22 12:33N 36°58' E 002°14'1515.4
2014-Aug-22 11:33N 36°60' E 002°33'1615.8
2014-Aug-22 10:33N 37°02' E 002°53'1515.0
2014-Aug-22 09:33N 37°05' E 003°12'1615.7
2014-Aug-22 08:34N 37°07' E 003°31'1514.8
2014-Aug-22 07:33N 37°09' E 003°49'1514.6
2014-Aug-22 06:33N 37°09' E 004°08'1615.8
2014-Aug-22 05:33N 37°06' E 004°27'1515.3
2014-Aug-22 04:33N 37°03' E 004°46'1515.1
2014-Aug-22 03:34N 36°60' E 005°04'1815.0
2014-Aug-22 02:24N 36°56' E 005°26'1415.7
2014-Aug-22 01:31N 36°54' E 005°43'10 4.3
2014-Aug-21 23:12N 36°49' E 005°54'0 0.0
2014-Aug-21 22:33N 36°49' E 005°54'0 0.0
2014-Aug-21 21:33N 36°49' E 005°54'0 0.0
2014-Aug-21 20:33N 36°49' E 005°54'0 0.0
2014-Aug-21 19:33N 36°49' E 005°54'0 0.0
2014-Aug-21 17:26N 36°49' E 005°54'0 0.0
2014-Aug-21 16:32N 36°49' E 005°54'0 0.0
2014-Aug-21 15:33N 36°49' E 005°54'0 0.0
2014-Aug-21 11:26N 36°49' E 005°54'0 0.0
2014-Aug-21 01:33N 36°49' E 005°54'0 0.0
2014-Aug-21 00:33N 36°49' E 005°54'0 0.0
2014-Aug-20 23:33N 36°49' E 005°54'0 0.0
2014-Aug-20 21:30N 36°49' E 005°54'64 5.9
2014-Aug-20 10:31N 37°28' E 006°59'4916.1
2014-Aug-20 07:27N 37°42' E 007°59'1415.2
2014-Aug-20 06:33N 37°46' E 008°15'1615.6
2014-Aug-20 05:32N 37°50' E 008°34'1515.1
2014-Aug-20 04:33N 37°54' E 008°52'1514.8
2014-Aug-20 03:33N 37°53' E 009°11'1514.8
2014-Aug-20 02:32N 37°50' E 009°30'1414.4
2014-Aug-20 01:32N 37°48' E 009°48'1514.5
2014-Aug-20 00:30N 37°45' E 010°07'1414.4
2014-Aug-19 23:33N 37°41' E 010°23'3015.0
2014-Aug-19 21:33N 37°31' E 010°59'1515.0
2014-Aug-19 20:33N 37°25' E 011°16'4514.9
2014-Aug-19 17:33N 37°01' E 012°03'1515.1
2014-Aug-19 16:33N 36°48' E 012°13'1514.9
2014-Aug-19 15:33N 36°36' E 012°24'1614.9
2014-Aug-19 14:30N 36°23' E 012°34'1515.6
2014-Aug-19 13:34N 36°10' E 012°44'1615.8
2014-Aug-19 12:33N 35°57' E 012°55'1615.9
2014-Aug-19 11:33N 35°43' E 013°05'1615.6
2014-Aug-19 10:33N 35°30' E 013°16'1515.1
2014-Aug-19 09:33N 35°17' E 013°25'1515.1
2014-Aug-19 08:33N 35°05' E 013°36'  
Track history (hours):
 
Tides and Currents Weather Stations Pressure Air Temp Water Temp Dewpoint Dewpoint Depression Visibility Wind Speed Wind Dir Waves Ship Positions

Hoegh Transporter

Last reported at 2014-Aug-29 07:33 UTC. Time now 2014-Aug-29 08:01 UTC.
Position N 53°34' E 008°33'.

Length 199 m; draft 7.9 m.

Type: Cargo ship. MMSI: 257712000.

Date/timePositionNaut miles runAvg speedWind from/ knotsBaromVisibWave heightAir tempDewpointWater temp
2014-Aug-29 07:33N 53°34' E 008°33'0 0.0
2014-Aug-29 06:33N 53°34' E 008°33'0 0.0
2014-Aug-29 05:27N 53°34' E 008°33'0 0.0
2014-Aug-29 04:27N 53°34' E 008°33'0 0.0
2014-Aug-29 03:27N 53°34' E 008°33'0 0.0
2014-Aug-29 02:33N 53°34' E 008°33'0 0.0
2014-Aug-29 01:33N 53°34' E 008°33'0 0.0
2014-Aug-29 00:30N 53°34' E 008°33'0 0.0
2014-Aug-28 23:33N 53°34' E 008°33'0 0.0
2014-Aug-28 22:30N 53°34' E 008°33'0 0.0
2014-Aug-28 21:24N 53°34' E 008°33'0 0.0
2014-Aug-28 20:30N 53°34' E 008°33'0 0.0
2014-Aug-28 19:27N 53°34' E 008°33'0 0.0
2014-Aug-28 18:33N 53°34' E 008°33'0 0.0
2014-Aug-28 17:33N 53°34' E 008°33'0 0.0
2014-Aug-28 16:30N 53°34' E 008°33'0 0.0
2014-Aug-28 15:27N 53°34' E 008°33'0 0.0
2014-Aug-28 14:33N 53°34' E 008°33'0 0.1
2014-Aug-28 13:33N 53°34' E 008°33'0 0.2
2014-Aug-28 12:33N 53°34' E 008°33'8 7.6
2014-Aug-28 11:33N 53°39' E 008°24'1212.4
2014-Aug-28 10:33N 53°48' E 008°08'1211.8
2014-Aug-28 09:32N 53°52' E 007°50'1111.7
2014-Aug-28 08:33N 53°54' E 007°30'1616.0
2014-Aug-28 07:33N 53°51' E 007°04'1515.4
2014-Aug-28 06:34N 53°47' E 006°38'1514.7
2014-Aug-28 05:32N 53°43' E 006°14'1414.3
2014-Aug-28 04:34N 53°39' E 005°51'1414.0
2014-Aug-28 03:33N 53°34' E 005°29'1414.0
2014-Aug-28 02:33N 53°30' E 005°07'1413.7
2014-Aug-28 01:34N 53°26' E 004°45'1514.7
2014-Aug-28 00:34N 53°13' E 004°33'1514.5
2014-Aug-27 23:34N 52°60' E 004°22'1414.1
2014-Aug-27 22:34N 52°48' E 004°10'1413.9
2014-Aug-27 21:33N 52°38' E 003°54'1414.0
2014-Aug-27 20:33N 52°27' E 003°40'1514.5
2014-Aug-27 19:33N 52°13' E 003°32'1212.3
2014-Aug-27 18:33N 52°04' E 003°46'1212.4
2014-Aug-27 17:33N 51°59' E 004°04'8 7.6
2014-Aug-27 16:33N 51°54' E 004°14'1 0.8
2014-Aug-27 15:33N 51°54' E 004°15'0 0.0
2014-Aug-27 14:33N 51°54' E 004°15'0 0.0
2014-Aug-27 13:33N 51°54' E 004°15'0 0.0
2014-Aug-27 12:33N 51°54' E 004°15'0 0.0
2014-Aug-27 11:33N 51°54' E 004°15'0 0.0
2014-Aug-27 10:33N 51°54' E 004°15'0 0.0
2014-Aug-27 09:33N 51°54' E 004°15'0 0.0
2014-Aug-27 08:33N 51°54' E 004°15'0 0.0
2014-Aug-27 07:33N 51°54' E 004°15'0 0.0
2014-Aug-27 06:33N 51°54' E 004°15'0 0.0
2014-Aug-27 05:33N 51°54' E 004°15'0 0.0
2014-Aug-27 04:33N 51°54' E 004°15'2 1.8
2014-Aug-27 03:33N 51°55' E 004°13'1010.2
2014-Aug-27 02:33N 52°00' E 003°59'1111.5
2014-Aug-27 01:33N 51°58' E 003°40'1716.8
2014-Aug-27 00:33N 51°54' E 003°14'1917.1
2014-Aug-26 23:27N 51°48' E 002°45'1516.3
2014-Aug-26 22:33N 51°38' E 002°27'1616.3
2014-Aug-26 21:33N 51°26' E 002°10'1514.8
2014-Aug-26 20:33N 51°13' E 001°59'1515.0
2014-Aug-26 19:33N 51°03' E 001°41'1312.8
2014-Aug-26 18:33N 50°54' E 001°27'1413.6
2014-Aug-26 17:34N 50°41' E 001°19'1914.6
2014-Aug-26 16:15N 50°30' E 000°55'1014.7
2014-Aug-26 15:33N 50°27' E 000°39'1515.0
2014-Aug-26 14:34N 50°22' E 000°17'  
2014-Aug-24 10:31N 39°03' W 009°51'1817.1
2014-Aug-24 09:26N 38°44' W 009°53'13016.2
2014-Aug-24 01:26N 36°42' W 008°58'3417.2
2014-Aug-23 23:28N 36°31' W 008°19'1516.9
2014-Aug-23 22:34N 36°27' W 008°00'1716.8
2014-Aug-23 21:34N 36°20' W 007°41'1716.5
2014-Aug-23 20:34N 36°13' W 007°23'1717.0
2014-Aug-23 19:32N 36°09' W 007°02'29214.5
2014-Aug-22 23:25N 36°34' W 001°00'1213.8
2014-Aug-22 22:33N 36°36' W 000°46'1414.0
2014-Aug-22 21:33N 36°38' W 000°28'1414.0
2014-Aug-22 20:33N 36°41' W 000°11'1313.5
2014-Aug-22 19:33N 36°42' E 000°05'1414.2
2014-Aug-22 18:33N 36°44' E 000°23'1515.1
2014-Aug-22 17:33N 36°47' E 000°42'1515.4
2014-Aug-22 16:34N 36°49' E 001°01'1514.8
2014-Aug-22 15:33N 36°51' E 001°19'1515.0
2014-Aug-22 14:33N 36°53' E 001°37'1514.9
2014-Aug-22 13:33N 36°55' E 001°56'1515.0
2014-Aug-22 12:33N 36°58' E 002°14'1515.4
2014-Aug-22 11:33N 36°60' E 002°33'1615.8
2014-Aug-22 10:33N 37°02' E 002°53'1515.0
2014-Aug-22 09:33N 37°05' E 003°12'1615.7
2014-Aug-22 08:34N 37°07' E 003°31'1514.8
2014-Aug-22 07:33N 37°09' E 003°49'1514.6
2014-Aug-22 06:33N 37°09' E 004°08'1615.8
2014-Aug-22 05:33N 37°06' E 004°27'1515.3
2014-Aug-22 04:33N 37°03' E 004°46'1515.1
2014-Aug-22 03:34N 36°60' E 005°04'1815.0
2014-Aug-22 02:24N 36°56' E 005°26'1415.7
2014-Aug-22 01:31N 36°54' E 005°43'10 4.3
2014-Aug-21 23:12N 36°49' E 005°54'0 0.0
2014-Aug-21 22:33N 36°49' E 005°54'0 0.0
2014-Aug-21 21:33N 36°49' E 005°54'0 0.0
2014-Aug-21 20:33N 36°49' E 005°54'0 0.0
2014-Aug-21 19:33N 36°49' E 005°54'0 0.0
2014-Aug-21 17:26N 36°49' E 005°54'0 0.0
2014-Aug-21 16:32N 36°49' E 005°54'0 0.0
2014-Aug-21 15:33N 36°49' E 005°54'0 0.0
2014-Aug-21 11:26N 36°49' E 005°54'0 0.0
2014-Aug-21 01:33N 36°49' E 005°54'0 0.0
2014-Aug-21 00:33N 36°49' E 005°54'0 0.0
2014-Aug-20 23:33N 36°49' E 005°54'0 0.0
2014-Aug-20 21:30N 36°49' E 005°54'64 5.9
2014-Aug-20 10:31N 37°28' E 006°59'4916.1
2014-Aug-20 07:27N 37°42' E 007°59'1415.2
2014-Aug-20 06:33N 37°46' E 008°15'1615.6
2014-Aug-20 05:32N 37°50' E 008°34'1515.1
2014-Aug-20 04:33N 37°54' E 008°52'1514.8
2014-Aug-20 03:33N 37°53' E 009°11'1514.8
2014-Aug-20 02:32N 37°50' E 009°30'1414.4
2014-Aug-20 01:32N 37°48' E 009°48'1514.5
2014-Aug-20 00:30N 37°45' E 010°07'1414.4
2014-Aug-19 23:33N 37°41' E 010°23'3015.0
2014-Aug-19 21:33N 37°31' E 010°59'1515.0
2014-Aug-19 20:33N 37°25' E 011°16'4514.9
2014-Aug-19 17:33N 37°01' E 012°03'1515.1
2014-Aug-19 16:33N 36°48' E 012°13'1514.9
2014-Aug-19 15:33N 36°36' E 012°24'1614.9
2014-Aug-19 14:30N 36°23' E 012°34'1515.6
2014-Aug-19 13:34N 36°10' E 012°44'1615.8
2014-Aug-19 12:33N 35°57' E 012°55'1615.9
2014-Aug-19 11:33N 35°43' E 013°05'1615.6
2014-Aug-19 10:33N 35°30' E 013°16'1515.1
2014-Aug-19 09:33N 35°17' E 013°25'1515.1
2014-Aug-19 08:33N 35°05' E 013°36'  

Dump ship's entire track history